createdAt,value
2019-05-02T00:00:13.191Z,14.20
2019-05-02T00:02:42.554Z,14.30
2019-05-02T00:05:12.292Z,14.30
2019-05-02T00:07:42.770Z,14.40
2019-05-02T00:10:15.033Z,14.30
2019-05-02T00:12:44.994Z,14.10
2019-05-02T00:15:16.391Z,14.20
2019-05-02T00:17:45.435Z,14.00
2019-05-02T00:20:21.016Z,13.80
2019-05-02T00:22:48.000Z,13.90
2019-05-02T00:25:18.133Z,14.10
2019-05-02T00:27:46.795Z,13.90
2019-05-02T00:30:17.008Z,14.20
2019-05-02T00:32:45.855Z,14.00
2019-05-02T00:35:14.836Z,14.00
2019-05-02T00:37:43.803Z,13.80
2019-05-02T00:40:12.898Z,13.80
2019-05-02T00:42:41.728Z,13.70
2019-05-02T00:45:10.514Z,13.70
2019-05-02T00:47:47.708Z,13.70
2019-05-02T00:50:13.955Z,13.70
2019-05-02T00:52:42.648Z,13.60
2019-05-02T00:55:11.558Z,13.80
2019-05-02T00:57:40.266Z,13.50
2019-05-02T01:00:13.391Z,13.70
2019-05-02T01:02:42.358Z,13.50
2019-05-02T01:05:13.526Z,13.50
2019-05-02T01:07:42.212Z,13.60
2019-05-02T01:10:10.935Z,13.70
2019-05-02T01:12:39.829Z,13.20
2019-05-02T01:15:11.155Z,13.30
2019-05-02T01:17:39.851Z,13.50
2019-05-02T01:20:09.227Z,13.00
2019-05-02T01:22:37.979Z,13.30
2019-05-02T01:25:14.979Z,13.20
2019-05-02T01:27:49.078Z,13.10
2019-05-02T01:30:25.735Z,13.20
2019-05-02T01:33:01.398Z,13.30
2019-05-02T01:35:31.600Z,13.20
2019-05-02T01:38:20.863Z,13.40
2019-05-02T01:40:53.249Z,13.10
2019-05-02T01:43:30.207Z,12.90
2019-05-02T01:45:58.978Z,13.00
2019-05-02T01:48:28.294Z,12.80
2019-05-02T01:50:57.625Z,12.90
2019-05-02T01:53:29.415Z,12.60
2019-05-02T01:55:57.696Z,12.80
2019-05-02T01:58:27.327Z,12.50
2019-05-02T02:00:56.045Z,12.60
2019-05-02T02:03:24.708Z,12.60
2019-05-02T02:05:53.633Z,12.80
2019-05-02T02:08:22.396Z,12.50
2019-05-02T02:10:56.197Z,12.60
2019-05-02T02:13:21.716Z,12.40
2019-05-02T02:15:50.443Z,12.30
2019-05-02T02:18:22.359Z,12.40
2019-05-02T02:21:10.841Z,12.40
2019-05-02T02:23:45.026Z,12.20
2019-05-02T02:26:13.901Z,12.40
2019-05-02T02:28:43.363Z,12.40
2019-05-02T02:31:12.077Z,12.30
2019-05-02T02:33:47.517Z,12.20
2019-05-02T02:36:11.303Z,12.10
2019-05-02T02:38:40.008Z,12.40
2019-05-02T02:41:13.116Z,12.40
2019-05-02T02:43:39.426Z,12.00
2019-05-02T02:46:09.736Z,12.30
2019-05-02T02:48:40.625Z,12.10
2019-05-02T02:51:09.560Z,12.10
2019-05-02T02:53:38.236Z,12.20
2019-05-02T02:56:08.444Z,12.20
2019-05-02T02:58:45.197Z,11.90
2019-05-02T03:01:07.955Z,12.00
2019-05-02T03:03:36.649Z,11.90
2019-05-02T03:06:07.984Z,11.90
2019-05-02T03:08:45.288Z,12.10
2019-05-02T03:11:06.496Z,12.20
2019-05-02T03:13:53.876Z,11.90
2019-05-02T03:16:24.871Z,12.20
2019-05-02T03:18:53.605Z,11.70
2019-05-02T03:21:22.725Z,11.80
2019-05-02T03:24:02.172Z,11.90
2019-05-02T03:26:21.961Z,11.90
2019-05-02T03:28:57.066Z,12.00
2019-05-02T03:31:24.669Z,12.20
2019-05-02T03:33:56.629Z,12.10
2019-05-02T03:36:35.679Z,12.10
2019-05-02T03:38:53.274Z,11.80
2019-05-02T03:41:23.560Z,12.00
2019-05-02T03:44:09.936Z,12.10
2019-05-02T03:46:22.937Z,12.10
2019-05-02T03:48:51.665Z,12.20
2019-05-02T03:51:24.662Z,12.10
2019-05-02T03:53:50.875Z,12.30
2019-05-02T03:56:19.734Z,11.90
2019-05-02T03:58:56.319Z,12.00
2019-05-02T04:01:20.060Z,12.30
2019-05-02T04:03:48.809Z,12.00
2019-05-02T04:06:21.281Z,12.10
2019-05-02T04:08:58.874Z,12.20
2019-05-02T04:11:22.172Z,12.20
2019-05-02T04:13:52.751Z,12.40
2019-05-02T04:16:22.545Z,12.40
2019-05-02T04:18:55.620Z,12.30
2019-05-02T04:21:26.041Z,12.40
2019-05-02T04:23:53.068Z,12.10
2019-05-02T04:26:22.347Z,12.40
2019-05-02T04:28:52.146Z,12.40
2019-05-02T04:31:24.595Z,12.50
2019-05-02T04:33:52.120Z,12.40
2019-05-02T04:36:21.008Z,12.30
2019-05-02T04:38:52.405Z,12.30
2019-05-02T04:41:28.514Z,12.00
2019-05-02T04:43:57.663Z,12.40
2019-05-02T04:46:27.119Z,12.10
2019-05-02T04:48:52.977Z,12.40
2019-05-02T04:51:22.329Z,12.30
2019-05-02T04:53:50.996Z,12.40
2019-05-02T04:56:19.724Z,12.10
2019-05-02T04:58:49.404Z,12.50
2019-05-02T05:01:21.330Z,12.30
2019-05-02T05:03:58.153Z,12.30
2019-05-02T05:06:20.203Z,12.60
2019-05-02T05:08:49.002Z,12.60
2019-05-02T05:11:21.251Z,12.30
2019-05-02T05:13:52.521Z,12.40
2019-05-02T05:16:18.873Z,12.60
2019-05-02T05:18:49.399Z,12.70
2019-05-02T05:21:18.247Z,12.80
2019-05-02T05:23:51.757Z,12.70
2019-05-02T05:26:19.103Z,12.80
2019-05-02T05:28:47.845Z,12.80
2019-05-02T05:31:24.042Z,12.80
2019-05-02T05:33:47.868Z,12.80
2019-05-02T05:36:19.725Z,12.90
2019-05-02T05:38:47.933Z,12.70
2019-05-02T05:41:21.349Z,12.90
2019-05-02T05:43:50.091Z,13.00
2019-05-02T05:46:17.957Z,13.10
2019-05-02T05:48:47.658Z,13.00
2019-05-02T05:51:20.542Z,13.10
2019-05-02T05:53:47.882Z,13.10
2019-05-02T05:56:18.016Z,12.90
2019-05-02T05:58:51.345Z,13.10
2019-05-02T06:01:20.395Z,13.20
2019-05-02T06:03:47.955Z,13.20
2019-05-02T06:06:22.794Z,13.30
2019-05-02T06:08:49.163Z,13.30
2019-05-02T06:11:20.098Z,13.40
2019-05-02T06:13:48.701Z,13.30
2019-05-02T06:16:18.268Z,13.50
2019-05-02T06:18:46.949Z,13.20
2019-05-02T06:21:17.142Z,13.50
2019-05-02T06:23:46.122Z,13.50
2019-05-02T06:26:15.554Z,13.30
2019-05-02T06:28:44.735Z,13.50
2019-05-02T06:31:13.400Z,13.70
2019-05-02T06:33:42.103Z,13.40
2019-05-02T06:36:10.885Z,13.60
2019-05-02T06:38:42.359Z,13.60
2019-05-02T06:41:11.506Z,13.70
2019-05-02T06:43:41.349Z,13.40
2019-05-02T06:46:16.473Z,13.50
2019-05-02T06:48:41.056Z,13.30
2019-05-02T06:51:10.461Z,13.60
2019-05-02T06:53:41.432Z,13.60
2019-05-02T06:56:12.657Z,13.50
2019-05-02T06:58:42.019Z,13.70
2019-05-02T07:01:11.755Z,13.60
2019-05-02T07:03:41.244Z,13.50
2019-05-02T07:06:10.933Z,13.60
2019-05-02T07:08:39.695Z,13.50
2019-05-02T07:11:08.630Z,13.50
2019-05-02T07:13:42.179Z,13.60
2019-05-02T07:16:37.708Z,13.80
2019-05-02T07:19:02.661Z,13.60
2019-05-02T07:21:31.845Z,13.40
2019-05-02T07:24:00.703Z,13.40
2019-05-02T07:26:29.394Z,13.40
2019-05-02T07:28:58.090Z,13.80
2019-05-02T07:31:26.775Z,13.70
2019-05-02T07:33:55.727Z,13.50
2019-05-02T07:36:24.398Z,13.60
2019-05-02T07:38:57.637Z,13.40
2019-05-02T07:41:24.227Z,13.50
2019-05-02T07:43:56.383Z,13.30
2019-05-02T07:46:24.471Z,13.60
2019-05-02T07:48:54.673Z,13.40
2019-05-02T07:51:23.652Z,13.50
2019-05-02T07:53:55.175Z,13.40
2019-05-02T07:56:22.757Z,13.70
2019-05-02T07:58:52.227Z,13.80
2019-05-02T08:01:20.910Z,13.80
2019-05-02T08:03:49.790Z,14.00
2019-05-02T08:06:18.520Z,13.80
2019-05-02T08:08:47.263Z,13.80
2019-05-02T08:11:15.987Z,13.80
2019-05-02T08:13:44.717Z,13.90
2019-05-02T08:16:13.395Z,13.70
2019-05-02T08:18:42.324Z,13.70
2019-05-02T08:21:11.068Z,13.70
2019-05-02T08:23:39.923Z,13.80
2019-05-02T08:26:08.665Z,13.90
2019-05-02T08:28:41.451Z,13.80
2019-05-02T08:31:13.538Z,13.80
2019-05-02T08:33:40.576Z,13.90
2019-05-02T08:36:09.253Z,14.00
2019-05-02T08:38:37.986Z,13.90
2019-05-02T08:41:06.734Z,13.80
2019-05-02T08:43:35.452Z,14.20
2019-05-02T08:46:04.374Z,14.20
2019-05-02T08:48:36.444Z,14.30
2019-05-02T08:51:03.507Z,14.20
2019-05-02T08:53:32.172Z,14.40
2019-05-02T08:56:00.927Z,14.40
2019-05-02T08:58:29.621Z,14.50
2019-05-02T09:00:58.295Z,14.40
2019-05-02T09:03:27.033Z,14.60
2019-05-02T09:06:05.657Z,14.60
2019-05-02T09:08:26.203Z,14.40
2019-05-02T09:10:54.886Z,14.60
2019-05-02T09:13:29.125Z,14.40
2019-05-02T09:15:54.483Z,14.50
2019-05-02T09:18:30.022Z,14.70
2019-05-02T09:20:56.623Z,14.40
2019-05-02T09:23:27.455Z,14.60
2019-05-02T09:25:54.646Z,14.50
2019-05-02T09:28:25.328Z,14.60
2019-05-02T09:30:57.318Z,14.60
2019-05-02T09:33:24.545Z,14.70
2019-05-02T09:35:53.358Z,14.70
2019-05-02T09:38:22.313Z,14.90
2019-05-02T09:40:54.575Z,14.80
2019-05-02T09:43:22.885Z,15.30
2019-05-02T09:45:52.097Z,15.10
2019-05-02T09:48:22.699Z,15.10
2019-05-02T09:50:52.818Z,15.10
2019-05-02T09:53:25.499Z,15.10
2019-05-02T09:55:57.296Z,15.20
2019-05-02T09:58:24.058Z,15.20
2019-05-02T10:01:02.008Z,15.30
2019-05-02T10:03:31.950Z,15.30
2019-05-02T10:06:03.116Z,15.20
2019-05-02T10:08:32.193Z,15.30
2019-05-02T10:11:02.776Z,15.60
2019-05-02T10:13:33.079Z,15.30
2019-05-02T10:16:02.143Z,15.30
2019-05-02T10:18:32.968Z,15.50
2019-05-02T10:21:03.007Z,15.40
2019-05-02T10:23:32.262Z,15.60
2019-05-02T10:26:02.853Z,15.70
2019-05-02T10:28:31.869Z,15.90
2019-05-02T10:31:02.298Z,15.70
2019-05-02T10:33:33.789Z,15.80
2019-05-02T10:36:02.706Z,16.00
2019-05-02T10:38:32.589Z,16.30
2019-05-02T10:41:04.099Z,16.30
2019-05-02T10:43:32.933Z,16.60
2019-05-02T10:46:03.615Z,16.70
2019-05-02T10:48:34.165Z,16.70
2019-05-02T10:51:25.335Z,16.70
2019-05-02T10:53:54.772Z,16.80
2019-05-02T10:56:22.105Z,16.80
2019-05-02T10:58:52.322Z,16.90
2019-05-02T11:01:24.245Z,17.00
2019-05-02T11:03:57.545Z,17.00
2019-05-02T11:06:26.205Z,17.10
2019-05-02T11:08:54.915Z,17.30
2019-05-02T11:11:23.834Z,17.20
2019-05-02T11:14:00.915Z,17.40
2019-05-02T11:16:35.024Z,17.50
2019-05-02T11:19:05.585Z,17.10
2019-05-02T11:21:34.262Z,17.20
2019-05-02T11:24:02.991Z,17.00
2019-05-02T11:26:32.415Z,17.20
2019-05-02T11:29:03.005Z,16.90
2019-05-02T11:31:32.560Z,16.90
2019-05-02T11:34:01.927Z,17.00
2019-05-02T11:36:32.868Z,17.10
2019-05-02T11:39:10.665Z,17.00
2019-05-02T11:41:31.985Z,17.00
2019-05-02T11:44:02.812Z,17.10
2019-05-02T11:46:33.065Z,17.50
2019-05-02T11:49:02.433Z,17.50
2019-05-02T11:51:33.465Z,17.70
2019-05-02T11:54:05.186Z,17.70
2019-05-02T11:56:33.076Z,17.60
2019-05-02T11:59:02.779Z,17.70
2019-05-02T12:01:37.206Z,17.90
2019-05-02T12:04:03.011Z,18.20
2019-05-02T12:06:33.178Z,17.90
2019-05-02T12:09:02.536Z,18.00
2019-05-02T12:11:32.341Z,18.00
2019-05-02T12:14:01.779Z,18.20
2019-05-02T12:16:32.415Z,18.20
2019-05-02T12:19:09.470Z,18.10
2019-05-02T12:21:32.497Z,17.90
2019-05-02T12:24:02.446Z,18.00
2019-05-02T12:26:32.357Z,18.10
2019-05-02T12:29:02.607Z,18.30
2019-05-02T12:31:32.641Z,18.20
2019-05-02T12:34:03.223Z,18.30
2019-05-02T12:36:33.282Z,18.40
2019-05-02T12:39:02.614Z,18.40
2019-05-02T12:41:33.093Z,18.50
2019-05-02T12:44:02.406Z,18.20
2019-05-02T12:46:31.870Z,18.30
2019-05-02T12:49:02.596Z,18.70
2019-05-02T12:51:33.860Z,18.70
2019-05-02T12:54:02.573Z,18.70
2019-05-02T12:56:32.439Z,18.80
2019-05-02T12:59:02.398Z,18.70
2019-05-02T13:01:32.958Z,18.70
2019-05-02T13:04:06.964Z,18.70
2019-05-02T13:06:37.223Z,18.30
2019-05-02T13:09:08.606Z,19.00
2019-05-02T13:11:44.661Z,18.90
2019-05-02T13:14:19.141Z,18.80
2019-05-02T13:16:43.091Z,18.90
2019-05-02T13:19:13.459Z,18.70
2019-05-02T13:21:45.385Z,18.80
2019-05-02T13:24:16.595Z,18.60
2019-05-02T13:26:45.556Z,18.50
2019-05-02T13:29:33.528Z,18.60
2019-05-02T13:32:04.071Z,18.70
2019-05-02T13:34:55.516Z,18.90
2019-05-02T13:37:22.519Z,19.10
2019-05-02T13:39:53.216Z,18.90
2019-05-02T13:42:24.021Z,19.00
2019-05-02T14:02:18.419Z,18.90
2019-05-02T14:04:47.100Z,18.90
2019-05-02T14:07:17.523Z,18.90
2019-05-02T14:09:53.033Z,18.90
2019-05-02T14:12:21.767Z,18.60
2019-05-02T14:14:51.890Z,18.90
2019-05-02T14:17:22.834Z,18.60
2019-05-02T14:20:10.052Z,18.90
2019-05-02T14:22:22.640Z,18.80
2019-05-02T14:24:52.903Z,18.80
2019-05-02T14:27:22.342Z,19.00
2019-05-02T14:29:52.984Z,19.20
2019-05-02T14:32:26.320Z,19.00
2019-05-02T14:34:56.979Z,18.90
2019-05-02T14:37:25.684Z,19.20
2019-05-02T14:39:55.941Z,19.00
2019-05-02T14:42:26.128Z,19.00
2019-05-02T14:45:10.764Z,19.00
2019-05-02T14:47:25.695Z,19.10
2019-05-02T14:49:56.710Z,19.10
2019-05-02T14:52:24.837Z,19.00
2019-05-02T14:54:55.678Z,18.90
2019-05-02T14:57:27.090Z,19.20
2019-05-02T14:59:59.091Z,18.80
2019-05-02T15:02:28.889Z,19.00
2019-05-02T15:04:57.119Z,18.90
2019-05-02T15:07:26.736Z,18.60
2019-05-02T15:09:57.260Z,18.20
2019-05-02T15:12:26.474Z,18.00
2019-05-02T15:14:58.664Z,18.00
2019-05-02T15:17:28.030Z,17.70
2019-05-02T15:19:57.934Z,17.30
2019-05-02T15:22:27.543Z,17.40
2019-05-02T15:24:57.115Z,17.50
2019-05-02T15:27:39.451Z,17.50
2019-05-02T15:30:05.654Z,17.50
2019-05-02T15:32:46.591Z,17.10
2019-05-02T15:35:17.585Z,17.00
2019-05-02T15:37:47.806Z,17.20
2019-05-02T15:40:47.310Z,17.40
2019-05-02T15:42:52.117Z,17.10
2019-05-02T15:45:23.800Z,17.40
2019-05-02T15:47:52.661Z,17.60
2019-05-02T15:50:25.608Z,17.80
2019-05-02T15:52:57.275Z,17.70
2019-05-02T15:55:26.676Z,17.80
2019-05-02T15:57:55.409Z,17.70
2019-05-02T16:00:26.216Z,17.90
2019-05-02T16:02:56.283Z,17.90
2019-05-02T16:05:26.007Z,17.60
2019-05-02T16:08:05.288Z,17.80
2019-05-02T16:10:25.321Z,17.70
2019-05-02T16:12:56.626Z,17.70
2019-05-02T16:15:26.377Z,17.70
2019-05-02T16:17:56.855Z,17.80
2019-05-02T16:20:32.264Z,17.70
2019-05-02T16:23:01.924Z,17.70
2019-05-02T16:25:32.039Z,17.80
2019-05-02T16:28:05.966Z,17.70
2019-05-02T16:30:37.102Z,17.80
2019-05-02T16:33:07.933Z,17.70
2019-05-02T16:35:35.689Z,17.70
2019-05-02T16:38:04.630Z,17.80
2019-05-02T16:40:34.944Z,17.60
2019-05-02T16:43:03.723Z,17.70
2019-05-02T16:45:32.755Z,17.80
2019-05-02T16:48:03.218Z,17.60
2019-05-02T16:50:36.563Z,17.20
2019-05-02T16:53:03.970Z,16.90
2019-05-02T16:55:32.884Z,16.50
2019-05-02T16:58:06.996Z,16.20
2019-05-02T17:00:36.931Z,15.80
2019-05-02T17:03:04.377Z,15.70
2019-05-02T17:05:33.075Z,15.30
2019-05-02T17:08:03.341Z,15.70
2019-05-02T17:10:42.406Z,15.50
2019-05-02T17:13:12.591Z,15.50
2019-05-02T17:15:42.766Z,15.50
2019-05-02T17:18:13.304Z,15.40
2019-05-02T17:20:46.832Z,15.40
2019-05-02T17:23:12.916Z,15.60
2019-05-02T17:25:41.700Z,15.60
2019-05-02T17:28:13.314Z,15.60
2019-05-02T17:30:43.109Z,15.80
2019-05-02T17:33:16.056Z,15.80
2019-05-02T17:35:49.449Z,15.50
2019-05-02T17:38:12.972Z,15.90
2019-05-02T17:40:42.199Z,16.00
2019-05-02T17:43:11.150Z,16.00
2019-05-02T17:45:40.265Z,16.20
2019-05-02T17:48:15.674Z,16.20
2019-05-02T17:50:42.219Z,16.00
2019-05-02T17:53:11.631Z,16.10
2019-05-02T17:55:42.680Z,16.20
2019-05-02T17:58:12.954Z,16.10
2019-05-02T18:00:47.530Z,16.60
2019-05-02T18:03:16.388Z,16.50
2019-05-02T18:05:45.172Z,16.50
2019-05-02T18:08:14.879Z,16.40
2019-05-02T18:10:43.939Z,16.50
2019-05-02T18:13:12.680Z,16.70
2019-05-02T18:15:41.818Z,16.50
2019-05-02T18:18:10.777Z,16.80
2019-05-02T18:20:42.679Z,16.60
2019-05-02T18:23:09.895Z,16.70
2019-05-02T18:25:38.610Z,16.70
2019-05-02T18:28:07.326Z,16.50
2019-05-02T18:30:36.016Z,16.80
2019-05-02T18:33:07.203Z,16.50
2019-05-02T18:35:37.360Z,16.40
2019-05-02T18:38:06.019Z,16.50
2019-05-02T18:40:34.731Z,16.50
2019-05-02T18:43:05.265Z,16.60
2019-05-02T18:45:33.837Z,16.40
2019-05-02T18:48:06.715Z,16.10
2019-05-02T18:50:36.897Z,16.30
2019-05-02T18:53:07.212Z,16.50
2019-05-02T18:55:36.311Z,16.30
2019-05-02T18:58:06.011Z,16.40
2019-05-02T19:00:39.169Z,16.40
2019-05-02T19:03:07.690Z,16.20
2019-05-02T19:05:37.647Z,16.50
2019-05-02T19:08:06.926Z,16.30
2019-05-02T19:10:37.140Z,16.10
2019-05-02T19:13:06.365Z,16.30
2019-05-02T19:15:39.645Z,16.30
2019-05-02T19:18:10.638Z,16.40
2019-05-02T19:20:57.554Z,16.50
2019-05-02T19:23:25.392Z,16.40
2019-05-02T19:25:54.596Z,16.30
2019-05-02T19:28:29.062Z,16.10
2019-05-02T19:31:02.959Z,16.20
2019-05-02T19:33:29.206Z,16.20
2019-05-02T19:35:57.872Z,16.20
2019-05-02T19:38:26.787Z,16.00
2019-05-02T19:40:58.282Z,16.10
2019-05-02T19:43:25.900Z,16.30
2019-05-02T19:45:54.619Z,16.10
2019-05-02T19:48:27.335Z,16.00
2019-05-02T19:50:53.863Z,16.10
2019-05-02T19:53:24.060Z,16.10
2019-05-02T19:55:57.139Z,16.10
2019-05-02T19:58:23.216Z,16.20
2019-05-02T20:00:52.661Z,16.30
2019-05-02T20:03:24.126Z,16.10
2019-05-02T20:05:56.628Z,16.00
2019-05-02T20:08:24.636Z,16.00
2019-05-02T20:10:56.833Z,16.00
2019-05-02T20:13:28.156Z,16.30
2019-05-02T20:16:04.013Z,16.00
2019-05-02T20:18:34.908Z,16.20
2019-05-02T20:21:24.240Z,16.00
2019-05-02T20:23:48.187Z,16.10
2019-05-02T20:26:17.162Z,15.90
2019-05-02T20:28:46.039Z,16.00
2019-05-02T20:31:14.719Z,16.10
2019-05-02T20:33:43.440Z,16.00
2019-05-02T20:36:12.998Z,16.30
2019-05-02T20:38:41.967Z,16.10
2019-05-02T20:41:12.707Z,16.30
2019-05-02T20:43:44.687Z,16.10
2019-05-02T20:46:12.547Z,16.30
2019-05-02T20:48:41.796Z,15.90
2019-05-02T20:51:12.128Z,15.60
2019-05-02T20:53:42.071Z,15.40
2019-05-02T20:56:12.404Z,14.90
2019-05-02T20:58:41.945Z,15.00
2019-05-02T21:01:12.487Z,15.10
2019-05-02T21:03:42.768Z,15.00
2019-05-02T21:06:13.482Z,14.90
2019-05-02T21:08:52.608Z,14.50
2019-05-02T21:11:21.619Z,14.40
2019-05-02T21:13:52.350Z,14.30
2019-05-02T21:16:21.828Z,14.60
2019-05-02T21:18:51.053Z,14.40
2019-05-02T21:21:23.598Z,14.40
2019-05-02T21:23:53.727Z,14.80
2019-05-02T21:26:22.451Z,14.60
2019-05-02T21:28:52.174Z,14.30
2019-05-02T21:31:22.499Z,14.30
2019-05-02T21:33:52.802Z,14.30
2019-05-02T21:36:22.710Z,14.40
2019-05-02T21:38:52.107Z,14.10
2019-05-02T21:41:22.181Z,14.50
2019-05-02T21:43:51.874Z,14.60
2019-05-02T21:46:22.311Z,14.60
2019-05-02T21:48:52.744Z,14.40
2019-05-02T21:51:23.172Z,14.30
2019-05-02T21:53:56.008Z,14.30
2019-05-02T21:56:32.402Z,14.20
2019-05-02T21:59:09.254Z,14.10
2019-05-02T22:01:48.836Z,14.00
2019-05-02T22:04:17.820Z,14.20
2019-05-02T22:06:46.677Z,13.70
2019-05-02T22:09:15.776Z,13.60
2019-05-02T22:11:44.968Z,13.80
2019-05-02T22:14:13.659Z,13.70
2019-05-02T22:16:42.598Z,13.60
2019-05-02T22:19:12.442Z,13.90
2019-05-02T22:21:43.019Z,13.70
2019-05-02T22:24:14.327Z,13.70
2019-05-02T22:26:43.550Z,13.40
2019-05-02T22:29:12.500Z,13.30
2019-05-02T22:31:43.147Z,13.20
2019-05-02T22:34:12.861Z,13.20
2019-05-02T22:36:42.931Z,13.20
2019-05-02T22:39:31.659Z,13.40
2019-05-02T22:42:01.926Z,13.10
2019-05-02T22:44:32.495Z,13.00
2019-05-02T22:47:01.485Z,13.10
2019-05-02T22:49:31.864Z,13.20
2019-05-02T22:52:00.694Z,13.50
2019-05-02T22:54:32.947Z,13.30
2019-05-02T22:57:02.661Z,13.10
2019-05-02T22:59:31.722Z,13.30
2019-05-02T23:02:02.142Z,13.10
2019-05-02T23:04:32.548Z,13.30
2019-05-02T23:07:02.282Z,13.00
2019-05-02T23:09:31.486Z,13.10
2019-05-02T23:12:02.613Z,13.30
2019-05-02T23:14:32.485Z,13.20
2019-05-02T23:17:02.284Z,13.40
2019-05-02T23:19:31.775Z,13.10
2019-05-02T23:22:02.045Z,13.10
2019-05-02T23:24:47.537Z,13.30
2019-05-02T23:27:17.918Z,13.10
2019-05-02T23:29:46.791Z,13.10
2019-05-02T23:32:15.546Z,13.10
2019-05-02T23:34:44.256Z,13.00
2019-05-02T23:37:12.919Z,13.30
2019-05-02T23:39:43.759Z,13.20
2019-05-02T23:42:13.503Z,13.40
2019-05-02T23:44:42.592Z,13.20
2019-05-02T23:47:11.878Z,13.30
2019-05-02T23:49:42.563Z,13.00
2019-05-02T23:52:11.769Z,13.40
2019-05-02T23:54:50.039Z,13.30
2019-05-02T23:57:12.123Z,13.30
2019-05-02T23:59:42.430Z,13.00
